Aérodrome :
LOGIN :

S'inscrire | Disclaimer

   EN    FR    IT 

 










Légende :    VFR   VFR Marginal   IFR   IFR Intensif   IFR Très Intensif
Visi : 
Plafond : 
>= 8 km
>= 3000ft
5 à 8 km
1000 à 3000 ft
1500m à 5 km
500 à 1000 ft
800 à 1500m
200 à 500 ft
< 800m
< 200 ft
Symboles :   Orages  Brouillard  Fortes neiges  Fortes précipitations  Vent > 20 kt
SIGMETs :   Divers  Orages  Givrage  Turbulence  Onde Orograph.  Cendres Volcan.







- Altitude de l'aérodrome : 75 ft
- Code IATA : YEO


EGDY - RNAS Yeovilton

DERNIER METAR :
  • 122150Z 21013KT 9999 FEW010 FEW018TCU 10/07 Q1011 BLU NOSIG

METARs EXPIRÉS :
  • 122050Z 21014KT 9999 FEW010 FEW018TCU SCT026 11/06 Q1010 BLU NOSIG
  • 121950Z 22013KT 9999 FEW010 FEW018CB SCT100 12/08 Q1010 BLU TEMPO 7000 SHRA SCT010 BKN018CB GRN

TAF TAF EGDY
Valide du 12 à 18h jusqu'au 13 à 03h UTC


121701Z 1218/1303 21015G25KT 9999 FEW015 SCT030
TEMPO 1218/1303 4000 SHRA SCT012 BKN015CB
PROB30
TEMPO 1218/1221 3000 +SHRA SCT010 BKN012CB
BECMG 1222/1224 23015G25KT 9999 BKN018
Pas de NOTAMs connus pour ce terrain.



MET'MAP, la Météo Aéronautique d'un coup d'oeil ! - Copyright ORBIFLY Décembre 2007 - Disclaimer

ORBIFLY MET'MAP TEAM :

Programmation & Développement : Alexandra Zaïnal
Conception & Développement : Baudouin d'Aumeries
Co-Programmation & Développement : Marc-Olivier Méhu
Soutien technique & logistique : Manuel Goepfert

Contact : metmap@orbifly.com




SOURCES & CREDITS :

   NOAA